createdAt,value
2023-02-26T00:01:25.182Z,-2.30
2023-02-26T00:03:53.944Z,-2.20
2023-02-26T00:06:22.454Z,-2.20
2023-02-26T00:08:51.289Z,-2.10
2023-02-26T00:11:20.097Z,-2.10
2023-02-26T00:13:50.718Z,-2.00
2023-02-26T00:16:28.346Z,-2.00
2023-02-26T00:18:57.610Z,-1.90
2023-02-26T00:21:26.967Z,-1.90
2023-02-26T00:23:55.897Z,-1.90
2023-02-26T00:26:27.217Z,-1.80
2023-02-26T00:28:58.341Z,-1.80
2023-02-26T00:31:27.023Z,-1.80
2023-02-26T00:33:57.204Z,-1.70
2023-02-26T00:36:31.182Z,-1.70
2023-02-26T00:39:08.297Z,-1.70
2023-02-26T00:41:39.291Z,-1.70
2023-02-26T00:44:09.724Z,-1.60
2023-02-26T00:46:45.440Z,-1.60
2023-02-26T00:49:24.874Z,-1.60
2023-02-26T00:51:57.322Z,-1.60
2023-02-26T00:54:27.629Z,-1.60
2023-02-26T00:56:57.533Z,-1.60
2023-02-26T00:59:27.814Z,-1.70
2023-02-26T01:01:56.014Z,-1.80
2023-02-26T01:04:25.686Z,-1.90
2023-02-26T01:06:56.784Z,-1.90
2023-02-26T01:09:28.524Z,-2.00
2023-02-26T01:12:02.157Z,-2.00
2023-02-26T01:14:32.879Z,-2.00
2023-02-26T01:17:09.825Z,-2.10
2023-02-26T01:19:45.367Z,-2.20
2023-02-26T01:22:18.621Z,-2.20
2023-02-26T01:24:49.442Z,-2.30
2023-02-26T01:27:18.423Z,-2.30
2023-02-26T01:29:48.851Z,-2.40
2023-02-26T01:32:23.423Z,-2.40
2023-02-26T01:34:59.379Z,-2.40
2023-02-26T01:37:34.690Z,-2.50
2023-02-26T01:40:22.583Z,-2.60
2023-02-26T01:42:54.598Z,-2.50
2023-02-26T01:45:32.695Z,-2.50
2023-02-26T01:48:07.196Z,-2.50
2023-02-26T01:50:37.514Z,-2.50
2023-02-26T01:53:21.979Z,-2.50
2023-02-26T01:55:54.263Z,-2.40
2023-02-26T01:58:23.988Z,-2.40
2023-02-26T02:00:53.527Z,-2.30
2023-02-26T02:03:23.627Z,-2.20
2023-02-26T02:05:56.294Z,-2.10
2023-02-26T02:08:24.753Z,-2.00
2023-02-26T02:10:54.844Z,-1.90
2023-02-26T02:13:37.027Z,-1.80
2023-02-26T02:16:16.622Z,-1.70
2023-02-26T02:18:53.458Z,-1.70
2023-02-26T02:21:34.187Z,-1.70
2023-02-26T02:24:09.661Z,-1.70
2023-02-26T02:26:54.434Z,-1.80
2023-02-26T02:29:57.187Z,-1.80
2023-02-26T02:32:32.463Z,-1.90
2023-02-26T02:35:10.888Z,-1.90
2023-02-26T02:37:42.848Z,-1.90
2023-02-26T02:40:14.605Z,-1.90
2023-02-26T02:42:47.117Z,-2.00
2023-02-26T02:45:21.132Z,-2.00
2023-02-26T02:47:55.572Z,-2.10
2023-02-26T02:50:30.362Z,-2.10
2023-02-26T02:53:03.408Z,-2.20
2023-02-26T02:55:35.908Z,-2.20
2023-02-26T02:58:07.767Z,-2.30
2023-02-26T03:00:41.192Z,-2.30
2023-02-26T03:03:17.408Z,-2.30
2023-02-26T03:05:46.019Z,-2.40
2023-02-26T03:08:19.390Z,-2.40
2023-02-26T03:10:48.425Z,-2.50
2023-02-26T03:13:18.559Z,-2.50
2023-02-26T03:15:57.139Z,-2.50
2023-02-26T03:18:36.368Z,-2.50
2023-02-26T03:21:13.539Z,-2.50
2023-02-26T03:23:48.172Z,-2.60
2023-02-26T03:26:21.657Z,-2.60
2023-02-26T03:28:55.421Z,-2.60
2023-02-26T03:31:28.985Z,-2.50
2023-02-26T03:34:02.560Z,-2.50
2023-02-26T03:36:37.564Z,-2.50
2023-02-26T03:39:13.159Z,-2.50
2023-02-26T03:41:47.132Z,-2.50
2023-02-26T03:44:24.394Z,-2.60
2023-02-26T03:46:57.519Z,-2.60
2023-02-26T03:49:32.269Z,-2.60
2023-02-26T03:52:02.196Z,-2.60
2023-02-26T03:54:35.600Z,-2.70
2023-02-26T03:57:04.314Z,-2.80
2023-02-26T03:59:33.652Z,-2.80
2023-02-26T04:02:06.123Z,-2.80
2023-02-26T04:04:42.356Z,-2.80
2023-02-26T04:07:11.762Z,-2.80
2023-02-26T04:09:42.318Z,-2.80
2023-02-26T04:12:10.591Z,-2.70
2023-02-26T04:14:39.628Z,-2.70
2023-02-26T04:17:08.310Z,-2.70
2023-02-26T04:19:37.913Z,-2.70
2023-02-26T04:22:06.240Z,-2.70
2023-02-26T04:24:34.468Z,-2.80
2023-02-26T04:27:02.639Z,-2.80
2023-02-26T04:29:31.328Z,-2.90
2023-02-26T04:32:00.939Z,-2.90
2023-02-26T04:34:29.237Z,-2.90
2023-02-26T04:36:58.917Z,-3.00
2023-02-26T04:39:27.521Z,-3.00
2023-02-26T04:41:55.635Z,-3.00
2023-02-26T04:44:24.008Z,-3.00
2023-02-26T04:46:52.609Z,-3.00
2023-02-26T04:49:20.856Z,-3.00
2023-02-26T04:51:49.466Z,-3.00
2023-02-26T04:54:19.767Z,-3.00
2023-02-26T04:56:47.939Z,-3.00
2023-02-26T04:59:16.448Z,-3.00
2023-02-26T05:01:45.189Z,-3.00
2023-02-26T05:04:13.537Z,-3.00
2023-02-26T05:06:42.451Z,-3.00
2023-02-26T05:09:10.917Z,-3.00
2023-02-26T05:11:40.558Z,-3.00
2023-02-26T05:14:09.173Z,-3.00
2023-02-26T05:16:37.540Z,-3.00
2023-02-26T05:19:05.696Z,-3.00
2023-02-26T05:21:34.319Z,-3.00
2023-02-26T05:24:04.036Z,-3.00
2023-02-26T05:26:32.216Z,-3.00
2023-02-26T05:29:02.520Z,-2.90
2023-02-26T05:31:31.071Z,-2.90
2023-02-26T05:33:59.416Z,-2.90
2023-02-26T05:36:28.134Z,-2.90
2023-02-26T05:38:56.738Z,-2.90
2023-02-26T05:41:24.980Z,-2.90
2023-02-26T05:43:53.541Z,-3.00
2023-02-26T05:46:23.398Z,-2.90
2023-02-26T05:48:51.800Z,-2.90
2023-02-26T05:51:20.052Z,-2.90
2023-02-26T05:53:48.875Z,-2.90
2023-02-26T05:56:17.999Z,-2.90
2023-02-26T05:58:46.613Z,-2.90
2023-02-26T06:01:15.744Z,-2.90
2023-02-26T06:03:45.297Z,-2.90
2023-02-26T06:06:18.205Z,-2.90
2023-02-26T06:08:46.633Z,-2.90
2023-02-26T06:11:15.266Z,-3.00
2023-02-26T06:13:43.491Z,-2.90
2023-02-26T06:16:12.100Z,-2.90
2023-02-26T06:18:40.300Z,-2.80
2023-02-26T06:21:10.703Z,-2.80
2023-02-26T06:23:38.969Z,-2.70
2023-02-26T06:26:07.262Z,-2.70
2023-02-26T06:28:35.549Z,-2.60
2023-02-26T06:31:03.996Z,-2.60
2023-02-26T06:33:32.275Z,-2.60
2023-02-26T06:36:00.920Z,-2.60
2023-02-26T06:38:31.139Z,-2.60
2023-02-26T06:40:59.372Z,-2.60
2023-02-26T06:43:28.003Z,-2.60
2023-02-26T06:45:59.224Z,-2.60
2023-02-26T06:48:27.669Z,-2.60
2023-02-26T06:50:56.279Z,-2.60
2023-02-26T06:53:25.216Z,-2.60
2023-02-26T06:55:55.404Z,-2.70
2023-02-26T06:58:24.577Z,-2.70
2023-02-26T07:00:53.252Z,-2.70
2023-02-26T07:03:21.648Z,-2.80
2023-02-26T07:05:50.665Z,-2.80
2023-02-26T07:08:19.083Z,-2.70
2023-02-26T07:10:49.308Z,-2.70
2023-02-26T07:13:21.341Z,-2.70
2023-02-26T07:15:49.480Z,-2.70
2023-02-26T07:18:17.673Z,-2.60
2023-02-26T07:20:46.479Z,-2.50
2023-02-26T07:23:14.690Z,-2.40
2023-02-26T07:25:43.234Z,-2.30
2023-02-26T07:28:11.814Z,-2.10
2023-02-26T07:30:42.457Z,-2.00
2023-02-26T07:33:13.315Z,-1.90
2023-02-26T07:35:42.334Z,-1.80
2023-02-26T07:38:10.524Z,-1.70
2023-02-26T07:40:38.841Z,-1.70
2023-02-26T07:43:07.572Z,-1.60
2023-02-26T07:45:35.823Z,-1.50
2023-02-26T07:48:05.509Z,-1.40
2023-02-26T07:50:34.383Z,-1.30
2023-02-26T07:53:02.616Z,-1.20
2023-02-26T07:55:30.691Z,-1.20
2023-02-26T07:57:59.444Z,-1.10
2023-02-26T08:00:27.574Z,-1.00
2023-02-26T08:02:55.884Z,-0.90
2023-02-26T08:05:26.217Z,-0.80
2023-02-26T08:07:55.012Z,-0.80
2023-02-26T08:10:23.184Z,-0.80
2023-02-26T08:12:51.618Z,-0.90
2023-02-26T08:15:20.034Z,-1.00
2023-02-26T08:17:48.494Z,-1.00
2023-02-26T08:20:16.974Z,-1.10
2023-02-26T08:22:46.613Z,-1.00
2023-02-26T08:25:15.262Z,-1.00
2023-02-26T08:27:44.355Z,-0.90
2023-02-26T08:30:13.575Z,-0.90
2023-02-26T08:32:42.663Z,-0.90
2023-02-26T08:35:11.891Z,-0.70
2023-02-26T08:37:40.271Z,-0.60
2023-02-26T08:40:15.114Z,-0.50
2023-02-26T08:42:43.462Z,-0.40
2023-02-26T08:45:12.207Z,-0.20
2023-02-26T08:47:55.628Z,0.10
2023-02-26T08:50:25.768Z,0.20
2023-02-26T08:52:54.679Z,0.50
2023-02-26T08:55:24.434Z,0.60
2023-02-26T08:57:52.683Z,0.70
2023-02-26T09:00:21.723Z,0.60
2023-02-26T09:02:50.153Z,0.60
2023-02-26T09:05:19.096Z,0.70
2023-02-26T09:07:47.440Z,0.70
2023-02-26T09:10:16.227Z,0.70
2023-02-26T09:12:46.817Z,1.30
2023-02-26T09:15:15.645Z,2.60
2023-02-26T09:17:44.273Z,3.80
2023-02-26T09:20:13.788Z,4.00
2023-02-26T09:22:42.395Z,4.10
2023-02-26T09:25:11.703Z,3.40
2023-02-26T09:27:39.793Z,2.80
2023-02-26T09:30:11.081Z,2.50
2023-02-26T09:32:39.602Z,2.60
2023-02-26T09:35:08.675Z,2.50
2023-02-26T09:37:37.033Z,2.60
2023-02-26T09:40:05.989Z,2.70
2023-02-26T09:42:54.304Z,2.70
2023-02-26T09:45:32.013Z,2.40
2023-02-26T09:48:03.178Z,2.20
2023-02-26T09:50:40.555Z,2.60
2023-02-26T09:53:15.978Z,3.10
2023-02-26T09:55:47.795Z,3.10
2023-02-26T09:58:20.411Z,3.00
2023-02-26T10:00:59.320Z,2.80
2023-02-26T10:03:33.442Z,2.80
2023-02-26T10:06:19.484Z,2.50
2023-02-26T10:08:57.652Z,2.50
2023-02-26T10:11:31.915Z,2.60
2023-02-26T10:14:06.170Z,2.90
2023-02-26T10:16:41.262Z,3.70
2023-02-26T10:19:14.174Z,4.20
2023-02-26T10:21:47.777Z,4.30
2023-02-26T10:24:20.911Z,3.80
2023-02-26T10:26:55.208Z,3.30
2023-02-26T10:29:29.151Z,2.90
2023-02-26T10:32:08.443Z,2.60
2023-02-26T10:34:40.390Z,2.40
2023-02-26T10:37:19.562Z,2.40
2023-02-26T10:39:53.112Z,2.40
2023-02-26T10:42:24.621Z,2.40
2023-02-26T10:45:02.655Z,2.50
2023-02-26T10:47:38.736Z,2.60
2023-02-26T10:50:11.018Z,2.70
2023-02-26T10:52:39.560Z,2.50
2023-02-26T10:55:27.464Z,2.60
2023-02-26T10:58:01.513Z,2.60
2023-02-26T11:00:29.950Z,2.70
2023-02-26T11:03:00.298Z,2.60
2023-02-26T11:05:31.541Z,2.50
2023-02-26T11:08:04.280Z,2.60
2023-02-26T11:10:41.829Z,2.60
2023-02-26T11:13:10.980Z,2.70
2023-02-26T11:15:40.135Z,2.60
2023-02-26T11:18:17.386Z,2.60
2023-02-26T11:20:47.874Z,2.70
2023-02-26T11:23:20.316Z,2.70
2023-02-26T11:25:53.504Z,2.60
2023-02-26T11:28:26.419Z,2.50
2023-02-26T11:30:57.406Z,2.50
2023-02-26T11:33:30.981Z,2.40
2023-02-26T11:36:02.548Z,2.50
2023-02-26T11:38:33.851Z,2.40
2023-02-26T11:41:03.659Z,2.40
2023-02-26T11:43:39.251Z,2.30
2023-02-26T11:46:07.831Z,2.50
2023-02-26T11:48:42.443Z,2.70
2023-02-26T11:51:16.794Z,2.80
2023-02-26T11:53:50.769Z,2.90
2023-02-26T11:56:26.758Z,3.00
2023-02-26T11:58:56.319Z,3.10
2023-02-26T12:01:29.546Z,3.20
2023-02-26T12:04:03.273Z,3.30
2023-02-26T12:06:32.374Z,3.40
2023-02-26T12:09:00.811Z,3.20
2023-02-26T12:11:46.477Z,3.00
2023-02-26T12:14:31.593Z,2.90
2023-02-26T12:17:12.642Z,2.80
2023-02-26T12:19:50.575Z,2.80
2023-02-26T12:22:36.876Z,2.80
2023-02-26T12:25:24.313Z,2.80
2023-02-26T12:28:18.691Z,2.90
2023-02-26T12:31:15.763Z,3.10
2023-02-26T12:33:55.163Z,3.00
2023-02-26T12:36:48.944Z,3.10
2023-02-26T12:39:34.082Z,3.10
2023-02-26T12:42:15.597Z,3.00
2023-02-26T12:44:58.807Z,2.90
2023-02-26T12:47:45.020Z,2.90
2023-02-26T12:50:25.195Z,2.90
2023-02-26T12:53:15.898Z,2.80
2023-02-26T12:55:54.618Z,2.70
2023-02-26T12:58:42.157Z,2.70
2023-02-26T13:01:24.875Z,2.80
2023-02-26T13:04:33.630Z,2.80
2023-02-26T13:07:29.559Z,2.70
2023-02-26T13:10:06.524Z,2.50
2023-02-26T13:12:47.557Z,2.50
2023-02-26T13:15:38.199Z,2.50
2023-02-26T13:18:12.686Z,2.50
2023-02-26T13:20:46.520Z,2.50
2023-02-26T13:23:20.782Z,2.50
2023-02-26T13:25:55.346Z,2.60
2023-02-26T13:28:32.078Z,2.60
2023-02-26T13:31:02.547Z,2.70
2023-02-26T13:33:35.051Z,2.70
2023-02-26T13:36:06.923Z,2.70
2023-02-26T13:38:46.626Z,2.70
2023-02-26T13:41:23.311Z,2.70
2023-02-26T13:44:16.282Z,2.70
2023-02-26T13:47:02.335Z,2.50
2023-02-26T13:49:41.602Z,2.50
2023-02-26T13:52:25.142Z,2.50
2023-02-26T13:54:54.655Z,2.60
2023-02-26T13:57:37.873Z,2.60
2023-02-26T14:00:23.870Z,2.50
2023-02-26T14:02:54.811Z,2.60
2023-02-26T14:06:01.101Z,2.60
2023-02-26T14:08:51.505Z,2.50
2023-02-26T14:11:47.185Z,2.50
2023-02-26T14:14:36.309Z,2.60
2023-02-26T14:17:30.764Z,2.60
2023-02-26T14:20:25.038Z,2.50
2023-02-26T14:23:12.249Z,2.40
2023-02-26T14:25:42.899Z,2.30
2023-02-26T14:28:31.778Z,2.30
2023-02-26T14:31:19.878Z,2.20
2023-02-26T14:34:00.089Z,2.20
2023-02-26T14:36:36.110Z,2.10
2023-02-26T14:39:09.855Z,2.10
2023-02-26T14:41:41.685Z,2.10
2023-02-26T14:44:17.484Z,2.10
2023-02-26T14:46:47.918Z,2.10
2023-02-26T14:49:27.862Z,2.10
2023-02-26T14:52:13.350Z,2.10
2023-02-26T14:54:56.036Z,2.10
2023-02-26T14:57:34.298Z,2.00
2023-02-26T15:00:19.152Z,2.00
2023-02-26T15:03:13.943Z,2.00
2023-02-26T15:05:49.405Z,2.00
2023-02-26T15:08:30.799Z,2.00
2023-02-26T15:11:16.885Z,2.00
2023-02-26T15:14:10.767Z,2.00
2023-02-26T15:16:50.946Z,2.10
2023-02-26T15:19:38.951Z,2.10
2023-02-26T15:22:23.041Z,2.00
2023-02-26T15:24:51.565Z,2.00
2023-02-26T15:27:21.742Z,1.90
2023-02-26T15:29:53.415Z,1.90
2023-02-26T15:32:26.866Z,1.80
2023-02-26T15:35:01.997Z,1.70
2023-02-26T15:37:33.608Z,1.60
2023-02-26T15:40:05.987Z,1.60
2023-02-26T15:42:38.635Z,1.50
2023-02-26T15:45:13.746Z,1.50
2023-02-26T15:47:42.894Z,1.40
2023-02-26T15:50:17.450Z,1.30
2023-02-26T15:52:48.708Z,1.20
2023-02-26T15:55:19.503Z,1.20
2023-02-26T15:57:49.269Z,1.10
2023-02-26T16:00:24.851Z,1.00
2023-02-26T16:02:57.285Z,0.90
2023-02-26T16:05:28.717Z,0.80
2023-02-26T16:07:57.979Z,0.70
2023-02-26T16:10:34.425Z,0.60
2023-02-26T16:13:03.641Z,0.50
2023-02-26T16:15:35.015Z,0.30
2023-02-26T16:18:07.024Z,0.20
2023-02-26T16:20:40.637Z,0.00
2023-02-26T16:23:14.015Z,-0.10
2023-02-26T16:25:50.639Z,-0.20
2023-02-26T16:28:23.248Z,-0.30
2023-02-26T16:30:54.801Z,-0.40
2023-02-26T16:33:25.077Z,-0.60
2023-02-26T16:36:05.841Z,-0.70
2023-02-26T16:38:44.252Z,-0.80
2023-02-26T16:41:13.411Z,-0.90
2023-02-26T16:43:53.336Z,-1.00
2023-02-26T16:46:29.087Z,-1.10
2023-02-26T16:49:01.264Z,-1.10
2023-02-26T16:51:33.102Z,-1.20
2023-02-26T16:54:04.172Z,-1.30
2023-02-26T16:56:34.485Z,-1.30
2023-02-26T16:59:06.408Z,-1.40
2023-02-26T17:01:39.108Z,-1.50
2023-02-26T17:04:09.171Z,-1.60
2023-02-26T17:06:40.017Z,-1.60
2023-02-26T17:09:12.060Z,-1.60
2023-02-26T17:11:44.514Z,-1.70
2023-02-26T17:14:19.638Z,-1.70
2023-02-26T17:16:48.974Z,-1.80
2023-02-26T17:19:18.060Z,-1.90
2023-02-26T17:21:50.513Z,-1.90
2023-02-26T17:24:21.538Z,-1.90
2023-02-26T17:26:49.968Z,-2.00
2023-02-26T17:29:23.162Z,-2.10
2023-02-26T17:31:52.594Z,-2.10
2023-02-26T17:34:22.351Z,-2.20
2023-02-26T17:36:52.108Z,-2.20
2023-02-26T17:39:20.248Z,-2.20
2023-02-26T17:41:49.116Z,-2.30
2023-02-26T17:44:18.006Z,-2.30
2023-02-26T17:46:46.361Z,-2.40
2023-02-26T17:49:15.504Z,-2.50
2023-02-26T17:51:44.202Z,-2.50
2023-02-26T17:54:13.883Z,-2.50
2023-02-26T17:56:43.634Z,-2.60
2023-02-26T17:59:13.361Z,-2.60
2023-02-26T18:01:41.549Z,-2.60
2023-02-26T18:04:10.081Z,-2.60
2023-02-26T18:06:39.332Z,-2.70
2023-02-26T18:09:07.746Z,-2.70
2023-02-26T18:11:37.340Z,-2.70
2023-02-26T18:14:06.159Z,-2.70
2023-02-26T18:16:39.167Z,-2.80
2023-02-26T18:19:09.768Z,-2.90
2023-02-26T18:21:38.023Z,-2.80
2023-02-26T18:24:07.018Z,-2.90
2023-02-26T18:26:37.052Z,-2.90
2023-02-26T18:29:05.403Z,-3.00
2023-02-26T18:31:35.261Z,-3.00
2023-02-26T18:34:04.709Z,-3.00
2023-02-26T18:36:37.798Z,-3.10
2023-02-26T18:39:08.611Z,-3.10
2023-02-26T18:41:38.374Z,-3.10
2023-02-26T18:44:06.902Z,-3.20
2023-02-26T18:46:38.728Z,-3.20
2023-02-26T18:49:07.114Z,-3.20
2023-02-26T18:51:35.623Z,-3.20
2023-02-26T18:54:03.954Z,-3.30
2023-02-26T18:56:32.144Z,-3.30
2023-02-26T18:59:01.832Z,-3.40
2023-02-26T19:01:30.780Z,-3.50
2023-02-26T19:03:59.448Z,-3.50
2023-02-26T19:06:28.415Z,-3.60
2023-02-26T19:08:56.711Z,-3.60
2023-02-26T19:11:25.246Z,-3.70
2023-02-26T19:13:54.047Z,-3.70
2023-02-26T19:16:23.810Z,-3.70
2023-02-26T19:18:52.013Z,-3.80
2023-02-26T19:21:20.658Z,-3.80
2023-02-26T19:23:49.316Z,-3.80
2023-02-26T19:26:17.587Z,-3.80
2023-02-26T19:28:45.835Z,-3.90
2023-02-26T19:31:15.814Z,-3.90
2023-02-26T19:33:46.596Z,-3.90
2023-02-26T19:36:14.906Z,-3.90
2023-02-26T19:38:47.461Z,-3.90
2023-02-26T19:41:18.962Z,-4.00
2023-02-26T19:43:47.653Z,-4.00
2023-02-26T19:46:16.612Z,-4.10
2023-02-26T19:48:46.698Z,-4.10
2023-02-26T19:51:14.871Z,-4.10
2023-02-26T19:53:43.131Z,-4.20
2023-02-26T19:56:11.825Z,-4.20
2023-02-26T19:58:40.003Z,-4.20
2023-02-26T20:01:08.172Z,-4.20
2023-02-26T20:03:37.259Z,-4.20
2023-02-26T20:06:08.406Z,-4.30
2023-02-26T20:08:36.629Z,-4.30
2023-02-26T20:11:05.340Z,-4.30
2023-02-26T20:13:34.989Z,-4.40
2023-02-26T20:16:05.782Z,-4.40
2023-02-26T20:18:35.425Z,-4.40
2023-02-26T20:21:05.954Z,-4.40
2023-02-26T20:23:37.718Z,-4.40
2023-02-26T20:26:07.922Z,-4.50
2023-02-26T20:28:36.388Z,-4.50
2023-02-26T20:31:04.957Z,-4.60
2023-02-26T20:33:34.227Z,-4.60
2023-02-26T20:36:02.892Z,-4.60
2023-02-26T20:38:31.727Z,-4.70
2023-02-26T20:41:01.476Z,-4.70
2023-02-26T20:43:29.712Z,-4.70
2023-02-26T20:45:57.958Z,-4.70
2023-02-26T20:48:26.856Z,-4.70
2023-02-26T20:51:00.185Z,-4.80
2023-02-26T20:53:28.687Z,-4.80
2023-02-26T20:55:57.393Z,-4.80
2023-02-26T20:58:27.164Z,-4.90
2023-02-26T21:00:57.081Z,-4.90
2023-02-26T21:03:25.608Z,-4.90
2023-02-26T21:05:53.886Z,-4.90
2023-02-26T21:08:23.674Z,-4.90
2023-02-26T21:10:52.666Z,-5.00
2023-02-26T21:13:20.902Z,-5.00
2023-02-26T21:15:52.017Z,-5.00
2023-02-26T21:18:20.153Z,-5.00
2023-02-26T21:20:50.804Z,-5.00
2023-02-26T21:23:19.365Z,-5.00
2023-02-26T21:25:47.664Z,-5.10
2023-02-26T21:28:16.167Z,-5.10
2023-02-26T21:30:44.540Z,-5.10
2023-02-26T21:33:14.351Z,-5.10
2023-02-26T21:35:43.007Z,-5.10
2023-02-26T21:38:12.826Z,-5.20
2023-02-26T21:40:40.919Z,-5.10
2023-02-26T21:43:10.600Z,-5.20
2023-02-26T21:45:40.162Z,-5.20
2023-02-26T21:48:08.621Z,-5.20
2023-02-26T21:50:38.305Z,-5.20
2023-02-26T21:53:06.671Z,-5.20
2023-02-26T21:55:34.937Z,-5.20
2023-02-26T21:58:03.533Z,-5.30
2023-02-26T22:00:31.771Z,-5.20
2023-02-26T22:02:59.997Z,-5.30
2023-02-26T22:05:28.359Z,-5.30
2023-02-26T22:07:58.433Z,-5.20
2023-02-26T22:10:26.638Z,-5.20
2023-02-26T22:12:54.914Z,-5.20
2023-02-26T22:15:23.460Z,-5.30
2023-02-26T22:17:51.648Z,-5.30
2023-02-26T22:20:20.687Z,-5.30
2023-02-26T22:22:48.991Z,-5.30
2023-02-26T22:25:18.604Z,-5.40
2023-02-26T22:27:47.081Z,-5.40
2023-02-26T22:30:16.232Z,-5.40
2023-02-26T22:32:44.961Z,-5.40
2023-02-26T22:35:14.149Z,-5.40
2023-02-26T22:37:42.919Z,-5.40
2023-02-26T22:40:12.390Z,-5.40
2023-02-26T22:42:43.391Z,-5.50
2023-02-26T22:45:13.588Z,-5.50
2023-02-26T22:47:42.060Z,-5.50
2023-02-26T22:50:11.471Z,-5.50
2023-02-26T22:52:39.922Z,-5.50
2023-02-26T22:55:10.310Z,-5.60
2023-02-26T22:57:39.449Z,-5.60
2023-02-26T23:00:14.810Z,-5.60
2023-02-26T23:02:43.442Z,-5.60
2023-02-26T23:05:12.287Z,-5.60
2023-02-26T23:07:41.130Z,-5.60
2023-02-26T23:10:12.150Z,-5.60
2023-02-26T23:12:40.380Z,-5.60
2023-02-26T23:15:11.831Z,-5.50
2023-02-26T23:17:40.836Z,-5.50
2023-02-26T23:20:13.901Z,-5.50
2023-02-26T23:22:44.151Z,-5.50
2023-02-26T23:25:13.082Z,-5.50
2023-02-26T23:27:41.728Z,-5.50
2023-02-26T23:30:13.329Z,-5.50
2023-02-26T23:32:42.297Z,-5.50
2023-02-26T23:35:11.454Z,-5.60
2023-02-26T23:37:39.702Z,-5.60
2023-02-26T23:40:09.299Z,-5.60
2023-02-26T23:42:37.526Z,-5.60
2023-02-26T23:45:06.332Z,-5.60
2023-02-26T23:47:36.032Z,-5.60
2023-02-26T23:50:04.324Z,-5.50
2023-02-26T23:52:32.487Z,-5.50
2023-02-26T23:55:02.536Z,-5.50
2023-02-26T23:57:30.948Z,-5.40
2023-02-26T23:59:59.133Z,-5.30
